Monroe, NC

6:33 PM EDT on July 28, 2015 (GMT -0400)
Monroe | | Change Station
CLOSE
Current Station
Airport
Location: Monroe,
Elevation: 679 ft
Nearby Weather Stations

Elev 679 ft 35.01 °N, 80.62 °W | Updated 40 minutes ago

Mostly Cloudy
Mostly Cloudy
85 °F
Feels Like 89 °F
N
5
Wind Variable Wind from SSW

Today
High -- | Low -- °F
--% Chance of Precip.
Yesterday
High -- | Low -- °F
Precip. -- in
6:28 AM 8:28 PM
Waxing Gibbous, 92% visible
Pressure 29.96 in
Visibility 10.0 miles
Clouds Mostly Cloudy 9000 ft
Heat Index 89 °F
Dew Point 70 °F
Humidity 61%
Rainfall 0.29 in
Snow Depth Not available.
UV 2 out of 12
Pollen 3.20 out of 12
Air Quality Not available.
Flu Activity Not available.
METAR KEQY 282153Z AUTO 20004KT 10SM BKN090 29/21 A2997 RMK AO2 LTG DSNT SW AND W SLP145 T02940211

More Conditions Fewer Conditions

Pressure 29.96 in
Visibility 10.0 miles
Clouds Mostly Cloudy 9000 ft
Heat Index 89 °F
Dew Point 70 °F
Humidity 61%
Rainfall 0.29 in
Snow Depth Not available.
UV 2 out of 12
Pollen 3.20 out of 12
Air Quality Not available.
Flu Activity Not available.
METAR KEQY 282153Z AUTO 20004KT 10SM BKN090 29/21 A2997 RMK AO2 LTG DSNT SW AND W SLP145 T02940211

More Conditions Fewer Conditions

10-Day Weather Forecast

×

Almanac

Astronomy

Jul. 28, 2015 Rise Set
Actual Time
Civil Twilight
Nautical Twilight
Astronomical Twilight
Moon
Length of Visible Light
Length of Day
Tomorrow will be .
, % of the Moon is Illuminated

Today's Extremes

State Highs State Lows

Community

WunderPhotos

Upload Photos

1,841,963 photos uploaded!

WunderBlogs® & News

Nearby

Air Quality

  Air Quality AQ Index Pollutant
Not available.

Snow Depth

Station Depth Elevation

Earthquake Activity

City Distance Mag. Time & Date
Minimum magnitude displayed is 2.5.

Coastal Water Temperatures

Place Temperature

Stations

Nearby Weather Stations

Station Location Temp. Windchill Dew Point Humidity Wind Precip. Elev Updated Type